Terminal Aerodrome Forecast
Issued by NWS Duluth, MN

Home | Current Version | Previous Version | Text Only | Print | Product List | Glossary On
Versions: 1 2 3 4 5 6 7 8 9 10 11 12 13
470
FTUS43 KDLH 152320
TAFINL
TAF
KINL 152320Z 1600/1624 VRB03KT P6SM BKN250
     FM160200 25004KT P6SM SCT250
     FM161900 22011G18KT P6SM SCT250=

USA.gov is the U.S. government's official web portal to all federal, state and local government web resources and services.